Time;durP1;ratioP1;P1;durP2;ratioP2;P2;SDS_P1;SDS_P2;PMS_P1;PMS_P2;Temp;Humidity;BMP_temperature;BMP_pressure;BME280_temperature;BME280_humidity;BME280_pressure;Samples;Min_cycle;Max_cycle;Signal;HPM_P1;HPM_P2
2023/10/17 00:02:11;;;;;;;3.60;2.50;;;8.70;99.90;;;;;;5028899;28;20213;-65
2023/10/17 00:04:41;;;;;;;3.67;2.47;;;8.60;99.90;;;;;;4996492;28;20206;-65
2023/10/17 00:07:17;;;;;;;3.70;2.33;;;8.60;99.90;;;;;;4995906;28;20174;-66
2023/10/17 00:09:48;;;;;;;3.90;2.40;;;8.60;99.90;;;;;;5001304;28;20178;-65
2023/10/17 00:15:16;;;;;;;3.40;2.37;;;8.50;99.90;;;;;;5018004;28;20229;-65
2023/10/17 00:17:33;;;;;;;3.13;2.23;;;8.50;99.90;;;;;;4998322;28;20187;-65
2023/10/17 00:20:07;;;;;;;2.90;2.10;;;8.50;99.90;;;;;;4994994;28;20193;-66
2023/10/17 00:22:36;;;;;;;3.20;2.27;;;8.50;99.90;;;;;;5019380;28;20273;-66
2023/10/17 00:25:09;;;;;;;3.80;2.30;;;8.50;99.90;;;;;;4997999;28;20199;-64
2023/10/17 00:27:35;;;;;;;3.80;2.40;;;8.40;99.90;;;;;;4993303;28;20199;-65
2023/10/17 00:30:04;;;;;;;3.37;2.20;;;8.50;99.90;;;;;;5011986;28;20182;-66
2023/10/17 00:32:35;;;;;;;3.00;2.07;;;8.40;99.90;;;;;;5016568;28;20207;-67
2023/10/17 00:35:08;;;;;;;3.37;2.40;;;8.40;99.90;;;;;;5000707;28;20175;-65
2023/10/17 00:37:37;;;;;;;2.60;2.30;;;8.50;99.90;;;;;;5016464;28;20409;-65
2023/10/17 00:40:26;;;;;;;2.77;2.00;;;8.40;99.90;;;;;;5007084;28;20195;-66
2023/10/17 00:42:54;;;;;;;2.83;2.00;;;8.40;99.90;;;;;;4999376;28;20435;-65
2023/10/17 00:45:23;;;;;;;3.40;2.13;;;8.30;99.90;;;;;;5000477;28;20198;-65
2023/10/17 00:47:51;;;;;;;3.17;2.10;;;8.40;99.90;;;;;;4996410;28;20183;-65
2023/10/17 00:50:20;;;;;;;3.27;2.30;;;8.30;99.90;;;;;;4997256;28;20182;-65
2023/10/17 00:52:49;;;;;;;3.10;2.30;;;8.30;99.90;;;;;;4996878;28;20203;-65
2023/10/17 00:55:15;;;;;;;3.83;2.40;;;8.30;99.90;;;;;;5013923;28;20175;-65
2023/10/17 00:57:43;;;;;;;3.63;2.53;;;8.20;99.90;;;;;;5000323;28;20182;-66
2023/10/17 01:00:35;;;;;;;2.97;2.27;;;8.30;99.90;;;;;;5000194;28;20178;-65
2023/10/17 01:03:08;;;;;;;4.27;2.50;;;8.20;99.90;;;;;;5000481;28;20175;-65
2023/10/17 01:08:44;;;;;;;2.67;2.00;;;8.20;99.90;;;;;;5014250;28;20238;-65
2023/10/17 01:11:20;;;;;;;2.87;2.23;;;8.10;99.90;;;;;;4996917;28;20171;-64
2023/10/17 01:13:51;;;;;;;3.83;2.47;;;8.10;99.90;;;;;;5000019;28;20232;-64
2023/10/17 01:16:20;;;;;;;4.43;2.37;;;8.10;99.90;;;;;;5000253;28;20163;-64
2023/10/17 01:18:45;;;;;;;3.47;2.33;;;8.00;99.90;;;;;;5003105;28;20229;-65
2023/10/17 01:21:21;;;;;;;2.77;2.10;;;8.20;99.90;;;;;;5015593;28;20202;-64
2023/10/17 01:23:48;;;;;;;3.77;2.63;;;8.00;99.90;;;;;;5003960;28;20174;-66
2023/10/17 01:26:20;;;;;;;3.13;2.50;;;8.00;99.90;;;;;;4998632;28;20198;-65
2023/10/17 01:28:50;;;;;;;2.73;2.00;;;8.00;99.90;;;;;;5009663;28;20183;-65
2023/10/17 01:31:22;;;;;;;3.00;2.30;;;8.00;99.90;;;;;;4995558;28;20185;-65
2023/10/17 01:33:51;;;;;;;3.10;2.27;;;8.10;99.90;;;;;;5003704;28;20237;-65
2023/10/17 01:36:19;;;;;;;3.00;2.10;;;8.10;99.90;;;;;;5003045;28;20245;-64
2023/10/17 01:38:49;;;;;;;2.83;2.23;;;8.10;99.90;;;;;;5018847;28;20277;-65
2023/10/17 01:41:18;;;;;;;3.37;2.10;;;8.20;99.90;;;;;;5019350;28;20201;-65
2023/10/17 01:43:47;;;;;;;2.63;2.10;;;8.10;99.90;;;;;;5005970;28;20178;-65
2023/10/17 01:46:21;;;;;;;4.37;2.00;;;8.20;99.90;;;;;;4999109;28;20340;-65
2023/10/17 01:48:48;;;;;;;4.30;2.17;;;8.20;99.90;;;;;;5004955;28;20190;-64
2023/10/17 01:51:14;;;;;;;3.17;2.33;;;8.20;99.90;;;;;;4988105;28;20189;-65
2023/10/17 01:53:41;;;;;;;3.13;2.33;;;8.30;99.90;;;;;;4996202;28;20205;-65
2023/10/17 01:56:22;;;;;;;2.70;2.40;;;8.30;99.90;;;;;;5012075;28;20182;-64
2023/10/17 01:58:55;;;;;;;3.87;2.50;;;8.20;99.90;;;;;;5000223;28;20276;-64
2023/10/17 02:01:25;;;;;;;2.90;2.40;;;8.40;99.90;;;;;;4999475;28;20187;-63
2023/10/17 02:03:52;;;;;;;3.33;2.30;;;8.40;99.90;;;;;;4998797;28;20202;-64
2023/10/17 02:06:22;;;;;;;3.77;2.53;;;8.50;99.90;;;;;;4999041;28;20171;-64
2023/10/17 02:08:48;;;;;;;3.73;2.70;;;8.40;99.90;;;;;;4988958;28;20182;-64
2023/10/17 02:11:23;;;;;;;3.67;2.43;;;8.40;99.90;;;;;;5014720;28;20209;-64
2023/10/17 02:13:57;;;;;;;3.00;2.63;;;8.50;99.90;;;;;;4995785;28;20214;-65
2023/10/17 02:16:29;;;;;;;3.30;2.40;;;8.50;99.90;;;;;;4980233;28;20262;-64
2023/10/17 02:18:59;;;;;;;3.80;2.77;;;8.50;99.90;;;;;;5011316;28;20182;-64
2023/10/17 02:21:28;;;;;;;2.67;2.13;;;8.60;99.90;;;;;;4994236;28;20241;-64
2023/10/17 02:23:56;;;;;;;3.93;2.70;;;8.50;99.90;;;;;;4982339;28;20179;-64
2023/10/17 02:26:28;;;;;;;3.00;2.63;;;8.50;99.90;;;;;;5002750;28;20309;-64
2023/10/17 02:28:59;;;;;;;3.40;2.60;;;8.50;99.90;;;;;;5015207;28;20175;-64
2023/10/17 02:31:28;;;;;;;3.70;2.90;;;8.50;99.90;;;;;;5026035;28;20171;-63
2023/10/17 02:33:55;;;;;;;4.13;2.50;;;8.50;99.90;;;;;;5011735;28;20210;-63
2023/10/17 02:36:21;;;;;;;3.87;2.50;;;8.50;99.90;;;;;;4998384;28;20185;-64
2023/10/17 02:38:50;;;;;;;2.90;2.47;;;8.50;99.90;;;;;;5006182;28;20194;-64
2023/10/17 02:41:19;;;;;;;3.00;2.27;;;8.50;99.90;;;;;;4998551;28;20297;-64
2023/10/17 02:43:52;;;;;;;3.53;2.43;;;8.50;99.90;;;;;;5007413;28;20222;-64
2023/10/17 02:46:18;;;;;;;3.33;2.50;;;8.50;99.90;;;;;;5000344;28;20193;-64
2023/10/17 02:48:47;;;;;;;3.70;2.70;;;8.50;99.90;;;;;;4995489;28;20182;-64
2023/10/17 02:53:56;;;;;;;3.53;2.57;;;8.50;99.90;;;;;;5026012;28;20221;-64
2023/10/17 02:56:25;;;;;;;4.80;2.60;;;8.50;99.90;;;;;;5015093;28;20190;-64
2023/10/17 02:59:04;;;;;;;3.17;2.40;;;8.50;99.90;;;;;;4998070;28;20178;-65
2023/10/17 03:01:36;;;;;;;6.20;2.67;;;8.50;99.90;;;;;;4984618;28;20326;-64
2023/10/17 03:04:07;;;;;;;4.13;2.80;;;8.50;99.90;;;;;;4995685;28;20230;-66
2023/10/17 03:06:42;;;;;;;3.07;2.43;;;8.40;99.90;;;;;;5011912;28;20207;-66
2023/10/17 03:12:29;;;;;;;3.47;2.40;;;8.40;99.90;;;;;;5015907;28;20151;-65
2023/10/17 03:17:15;;;;;;;3.63;2.60;;;8.40;99.90;;;;;;5019455;28;20158;-65
2023/10/17 03:19:43;;;;;;;2.73;2.17;;;8.50;99.90;;;;;;5001562;28;20301;-65
2023/10/17 03:22:27;;;;;;;4.20;2.40;;;8.40;99.90;;;;;;4995685;28;20222;-65
2023/10/17 03:25:18;;;;;;;3.53;2.40;;;8.50;99.90;;;;;;5005895;28;20206;-65
2023/10/17 03:27:50;;;;;;;6.10;4.23;;;8.40;99.90;;;;;;5004317;28;20171;-65
2023/10/17 03:30:19;;;;;;;3.90;3.00;;;8.50;99.90;;;;;;5005265;28;20162;-65
2023/10/17 03:35:29;;;;;;;3.87;2.73;;;8.50;99.90;;;;;;5012552;28;20163;-65
2023/10/17 03:37:55;;;;;;;4.10;2.90;;;8.50;99.90;;;;;;5016178;28;20202;-65
2023/10/17 03:40:51;;;;;;;3.10;2.57;;;8.50;99.90;;;;;;5001896;28;20201;-65
2023/10/17 03:43:15;;;;;;;3.67;2.83;;;8.50;99.90;;;;;;5015399;28;20246;-65
2023/10/17 03:45:51;;;;;;;3.20;2.53;;;8.50;99.90;;;;;;5009220;28;20241;-63
2023/10/17 03:48:20;;;;;;;4.43;2.70;;;8.70;99.90;;;;;;5014272;28;20213;-64
2023/10/17 03:53:15;;;;;;;5.77;4.20;;;8.50;99.90;;;;;;5018750;28;20178;-64
2023/10/17 03:55:43;;;;;;;3.80;3.20;;;8.50;99.90;;;;;;5015860;28;20213;-65
2023/10/17 03:58:49;;;;;;;3.90;2.90;;;8.60;99.90;;;;;;5018060;28;20199;-65
2023/10/17 04:01:00;;;;;;;4.10;2.97;;;8.60;99.90;;;;;;4998124;28;20273;-65
2023/10/17 04:08:31;;;;;;;3.33;2.40;;;8.60;99.90;;;;;;5016879;28;20247;-65
2023/10/17 04:13:41;;;;;;;4.93;3.07;;;8.60;99.90;;;;;;5011636;28;20249;-66
2023/10/17 04:16:14;;;;;;;8.70;5.53;;;8.60;99.90;;;;;;5005641;28;20207;-65
2023/10/17 04:18:40;;;;;;;7.37;5.53;;;8.50;99.90;;;;;;5007560;28;20197;-66
2023/10/17 04:21:26;;;;;;;5.40;3.93;;;8.50;99.90;;;;;;4999971;28;20207;-65
2023/10/17 04:23:53;;;;;;;6.03;3.77;;;8.60;99.90;;;;;;5000759;28;20175;-65
2023/10/17 04:26:19;;;;;;;4.53;3.20;;;8.50;99.90;;;;;;5003459;28;20166;-66
2023/10/17 04:28:50;;;;;;;4.50;2.80;;;8.50;99.90;;;;;;5007483;28;20218;-72
2023/10/17 04:31:26;;;;;;;4.50;3.30;;;8.50;99.90;;;;;;5003625;28;20194;-65
2023/10/17 04:33:56;;;;;;;2.93;2.53;;;8.50;99.90;;;;;;5013354;28;20217;-68
2023/10/17 04:36:25;;;;;;;3.67;2.43;;;8.50;99.90;;;;;;4997478;28;20214;-65
2023/10/17 04:44:15;;;;;;;2.83;2.43;;;8.50;99.90;;;;;;5009680;28;20222;-64
2023/10/17 04:47:06;;;;;;;2.80;2.37;;;8.50;99.90;;;;;;4998643;28;20178;-64
2023/10/17 04:49:36;;;;;;;3.13;2.30;;;8.50;99.90;;;;;;4981134;28;20206;-64
2023/10/17 04:52:13;;;;;;;2.60;2.20;;;8.50;99.90;;;;;;4981365;28;20257;-65
2023/10/17 04:54:39;;;;;;;3.10;2.30;;;8.50;99.90;;;;;;4992849;28;20194;-65
2023/10/17 04:57:09;;;;;;;2.50;2.07;;;8.50;99.90;;;;;;5008825;28;20189;-65
2023/10/17 06:18:59;;;;;;;2.47;2.20;;;8.50;99.90;;;;;;5016299;28;20244;-66
2023/10/17 06:22:35;;;;;;;3.43;2.40;;;8.50;99.90;;;;;;4998808;28;20403;-64
2023/10/17 06:26:59;;;;;;;3.17;2.20;;;8.50;99.90;;;;;;5015803;28;20179;-66
2023/10/17 06:34:26;;;;;;;3.40;2.50;;;8.50;99.90;;;;;;4996461;28;20226;-65
2023/10/17 06:36:59;;;;;;;2.93;2.30;;;8.50;99.90;;;;;;5005715;28;20217;-65
2023/10/17 06:39:36;;;;;;;4.57;2.60;;;8.50;99.90;;;;;;5018148;28;20225;-65
2023/10/17 06:42:29;;;;;;;3.43;2.63;;;8.50;99.90;;;;;;5016179;28;20200;-67
2023/10/17 06:45:09;;;;;;;2.33;1.93;;;8.50;99.90;;;;;;5015046;28;20260;-64
2023/10/17 06:47:47;;;;;;;3.43;2.33;;;8.60;99.90;;;;;;4998546;28;20319;-66
2023/10/17 06:55:21;;;;;;;2.90;2.23;;;8.60;99.90;;;;;;5015836;28;20189;-65
2023/10/17 06:57:55;;;;;;;2.67;2.30;;;8.70;99.90;;;;;;4998487;28;20202;-65
2023/10/17 07:00:27;;;;;;;3.80;2.30;;;8.70;99.90;;;;;;4998371;28;20166;-66
2023/10/17 07:02:56;;;;;;;2.77;2.53;;;8.70;99.90;;;;;;4999233;28;20301;-65
2023/10/17 07:05:23;;;;;;;2.97;2.50;;;8.70;99.90;;;;;;5002207;28;20232;-65
2023/10/17 07:07:59;;;;;;;3.73;2.97;;;8.70;99.90;;;;;;5002409;28;20171;-66
2023/10/17 07:13:35;;;;;;;2.87;2.50;;;8.80;99.90;;;;;;5019744;28;20155;-65
2023/10/17 07:16:11;;;;;;;4.13;2.70;;;8.80;99.90;;;;;;5018749;28;20186;-65
2023/10/17 07:18:51;;;;;;;2.60;2.37;;;8.80;99.90;;;;;;5018671;28;20202;-66
2023/10/17 07:21:23;;;;;;;3.10;2.50;;;8.90;99.90;;;;;;5006941;28;20206;-65
2023/10/17 07:24:06;;;;;;;3.10;2.30;;;8.90;99.90;;;;;;4992841;28;20186;-66
2023/10/17 07:28:58;;;;;;;2.47;2.27;;;9.00;99.90;;;;;;5029339;28;20269;-66
2023/10/17 07:31:23;;;;;;;2.73;2.30;;;9.00;99.90;;;;;;5016087;28;20187;-66
2023/10/17 07:36:36;;;;;;;3.30;2.60;;;9.10;99.90;;;;;;5019025;28;20228;-64
2023/10/17 07:39:06;;;;;;;3.27;2.60;;;9.10;99.90;;;;;;5017791;28;20287;-66
2023/10/17 07:41:38;;;;;;;3.63;2.90;;;9.20;99.90;;;;;;5018256;28;20202;-65
2023/10/17 07:44:21;;;;;;;3.40;2.63;;;9.20;99.90;;;;;;5018262;28;20230;-67
2023/10/17 07:49:35;;;;;;;2.90;2.25;;;9.30;99.90;;;;;;5019045;28;20155;-66
2023/10/17 07:52:12;;;;;;;3.23;2.33;;;9.30;99.90;;;;;;5001743;28;20218;-65
2023/10/17 07:54:45;;;;;;;2.70;2.30;;;9.30;99.90;;;;;;5001792;28;20186;-64
2023/10/17 07:57:17;;;;;;;3.60;2.40;;;9.40;99.90;;;;;;5001718;28;20178;-64
2023/10/17 07:59:52;;;;;;;3.43;2.50;;;9.40;99.90;;;;;;4999106;28;20213;-66
2023/10/17 08:02:23;;;;;;;3.38;2.15;;;9.50;99.90;;;;;;5001343;28;20206;-65
2023/10/17 08:04:53;;;;;;;3.95;2.08;;;9.50;99.90;;;;;;5001184;28;20183;-66
2023/10/17 08:07:22;;;;;;;2.85;2.13;;;9.60;99.90;;;;;;5001219;28;20226;-65
2023/10/17 08:09:56;;;;;;;3.92;2.53;;;9.60;99.90;;;;;;5001219;28;20195;-65
2023/10/17 08:12:29;;;;;;;3.13;2.35;;;9.60;99.90;;;;;;5001165;28;20368;-66
2023/10/17 08:14:58;;;;;;;2.60;2.20;;;9.70;99.90;;;;;;5001294;28;20305;-66
2023/10/17 08:17:34;;;;;;;4.57;2.42;;;9.80;99.90;;;;;;5001377;28;20182;-66
2023/10/17 08:22:55;;;;;;;3.45;2.47;;;9.80;99.90;;;;;;5018207;28;20209;-65
2023/10/17 08:25:30;;;;;;;3.20;2.22;;;9.90;99.90;;;;;;5001200;28;20158;-65
2023/10/17 08:27:59;;;;;;;3.10;1.85;;;9.90;99.90;;;;;;5000946;28;20288;-65
2023/10/17 08:30:26;;;;;;;3.03;1.98;;;10.00;99.90;;;;;;5001085;28;20174;-67
2023/10/17 08:33:11;;;;;;;2.85;2.00;;;10.10;99.90;;;;;;5001038;28;20492;-65
2023/10/17 08:35:37;;;;;;;2.60;2.10;;;10.10;99.90;;;;;;5017166;28;20182;-66
2023/10/17 08:38:07;;;;;;;3.10;1.90;;;10.20;99.90;;;;;;5009854;28;20212;-65
2023/10/17 08:43:14;;;;;;;3.08;2.30;;;10.30;99.90;;;;;;5037933;28;20146;-66
2023/10/17 08:45:41;;;;;;;2.63;2.03;;;10.40;99.90;;;;;;5002556;28;20186;-65
2023/10/17 08:48:11;;;;;;;2.80;1.88;;;10.40;99.90;;;;;;5000488;28;20434;-66
2023/10/17 08:50:40;;;;;;;2.13;1.75;;;10.50;99.90;;;;;;5000688;28;20179;-65
2023/10/17 08:55:48;;;;;;;2.35;2.10;;;10.70;99.90;;;;;;5017692;28;20198;-65
2023/10/17 08:58:14;;;;;;;3.08;2.10;;;10.70;99.90;;;;;;5000404;28;20179;-65
2023/10/17 09:03:35;;;;;;;2.63;1.98;;;10.80;99.90;;;;;;5017303;28;20159;-65
2023/10/17 09:08:52;;;;;;;2.15;1.95;;;11.00;99.90;;;;;;5017184;28;20229;-65
2023/10/17 09:11:34;;;;;;;3.83;1.80;;;11.10;99.90;;;;;;5016280;28;20495;-66
2023/10/17 09:16:51;;;;;;;2.53;1.88;;;11.10;99.90;;;;;;5000305;28;20266;-66
2023/10/17 09:19:20;;;;;;;3.35;1.90;;;11.20;99.90;;;;;;4996652;28;20181;-66
2023/10/17 09:21:49;;;;;;;3.30;2.20;;;11.30;99.90;;;;;;4996546;28;20269;-66
2023/10/17 09:24:37;;;;;;;3.97;2.05;;;11.30;99.90;;;;;;5001668;28;20190;-66
2023/10/17 09:27:09;;;;;;;2.67;2.00;;;11.30;99.90;;;;;;4995987;28;20164;-65
2023/10/17 09:29:43;;;;;;;2.17;1.98;;;11.40;99.90;;;;;;4996637;28;20207;-67
2023/10/17 09:32:09;;;;;;;2.70;2.10;;;11.50;99.90;;;;;;4980242;28;20344;-66
2023/10/17 09:34:38;;;;;;;2.80;2.00;;;11.60;99.90;;;;;;4996343;28;20231;-66
2023/10/17 09:37:12;;;;;;;2.33;2.13;;;11.60;99.90;;;;;;5005539;28;20203;-65
2023/10/17 09:39:46;;;;;;;2.90;2.00;;;11.70;99.90;;;;;;5010405;28;20169;-67
2023/10/17 09:42:13;;;;;;;3.33;1.98;;;11.80;99.90;;;;;;4998970;28;20222;-64
2023/10/17 09:44:40;;;;;;;2.40;1.88;;;12.00;99.90;;;;;;4999334;28;20175;-63
2023/10/17 09:47:12;;;;;;;2.90;1.83;;;12.10;99.90;;;;;;4998900;28;20173;-66
2023/10/17 09:49:49;;;;;;;2.08;1.52;;;12.30;99.90;;;;;;4999218;28;20278;-63
2023/10/17 09:52:21;;;;;;;2.53;2.10;;;12.50;99.90;;;;;;4999142;28;20178;-64
2023/10/17 09:54:51;;;;;;;2.78;1.80;;;12.80;99.90;;;;;;4998989;28;20378;-65
2023/10/17 09:57:25;;;;;;;2.00;1.70;;;13.00;99.90;;;;;;4999767;28;20233;-66
2023/10/17 10:00:23;;;;;;;2.28;1.70;;;13.20;99.90;;;;;;5004719;28;20182;-66
2023/10/17 10:02:54;;;;;;;1.83;1.55;;;13.50;99.90;;;;;;5000557;28;20309;-66
2023/10/17 10:05:25;;;;;;;2.17;1.70;;;13.70;99.90;;;;;;4999366;28;20197;-65
2023/10/17 10:07:55;;;;;;;2.83;1.65;;;14.10;99.90;;;;;;4995947;28;20282;-65
2023/10/17 10:10:44;;;;;;;2.92;1.88;;;14.40;99.90;;;;;;4995404;28;20206;-65
2023/10/17 10:13:16;;;;;;;2.65;1.70;;;14.70;99.90;;;;;;4997747;28;20280;-66
2023/10/17 10:16:03;;;;;;;2.63;1.80;;;14.80;99.90;;;;;;5014868;28;20171;-66
2023/10/17 10:18:35;;;;;;;2.17;1.35;;;14.80;99.90;;;;;;5014989;28;20191;-65
2023/10/17 10:21:13;;;;;;;2.60;1.52;;;14.70;99.90;;;;;;5014864;28;20314;-66
2023/10/17 10:23:40;;;;;;;2.22;1.50;;;14.70;99.90;;;;;;4995169;28;20285;-66
2023/10/17 10:26:11;;;;;;;2.55;1.50;;;14.60;99.90;;;;;;4998264;28;20186;-66
2023/10/17 10:28:38;;;;;;;2.30;1.38;;;14.50;99.90;;;;;;5014767;28;20171;-66
2023/10/17 10:31:25;;;;;;;1.40;1.30;;;14.40;99.90;;;;;;4998491;28;20202;-65
2023/10/17 10:34:00;;;;;;;2.45;1.60;;;14.30;99.90;;;;;;4985203;28;20281;-65
2023/10/17 10:36:26;;;;;;;1.65;1.25;;;14.20;99.90;;;;;;5013670;28;20189;-65
2023/10/17 10:38:57;;;;;;;2.25;1.85;;;14.10;99.90;;;;;;5017171;28;20217;-65
2023/10/17 10:41:29;;;;;;;2.25;1.30;;;14.10;99.90;;;;;;5017961;28;20186;-66
2023/10/17 10:43:59;;;;;;;2.22;1.30;;;14.00;99.90;;;;;;5018071;28;20229;-64
2023/10/17 10:46:25;;;;;;;2.38;1.35;;;14.00;99.90;;;;;;5019652;28;20249;-65
2023/10/17 10:48:53;;;;;;;2.63;1.08;;;14.00;99.90;;;;;;5018419;28;20174;-65
2023/10/17 10:51:24;;;;;;;2.20;1.30;;;14.00;99.90;;;;;;5010894;28;20206;-65
2023/10/17 10:53:56;;;;;;;1.85;1.42;;;14.10;99.90;;;;;;5001924;28;20218;-65
2023/10/17 10:56:24;;;;;;;2.95;1.52;;;14.10;99.90;;;;;;5006716;28;20185;-65
2023/10/17 10:58:55;;;;;;;2.17;1.30;;;14.20;99.90;;;;;;5004454;28;20212;-65
2023/10/17 11:01:27;;;;;;;2.78;1.50;;;14.50;99.90;;;;;;5000060;28;20210;-65
2023/10/17 11:03:53;;;;;;;1.85;1.27;;;14.80;99.90;;;;;;4998702;28;20163;-66
2023/10/17 11:06:25;;;;;;;1.45;1.17;;;15.10;99.90;;;;;;4998489;28;20198;-65
2023/10/17 11:08:54;;;;;;;1.65;1.27;;;15.50;99.90;;;;;;4997930;28;20261;-65
2023/10/17 11:11:19;;;;;;;2.35;1.63;;;15.80;99.90;;;;;;5015354;28;20225;-67
2023/10/17 11:13:52;;;;;;;1.63;1.30;;;16.20;99.90;;;;;;5003201;28;20213;-65
2023/10/17 11:16:25;;;;;;;1.30;0.93;;;16.50;99.90;;;;;;5005161;28;20179;-66
2023/10/17 11:18:51;;;;;;;3.05;1.50;;;16.80;99.90;;;;;;4998373;28;20199;-66
2023/10/17 11:21:24;;;;;;;2.10;1.20;;;17.10;99.90;;;;;;4998075;28;20200;-67
2023/10/17 11:23:55;;;;;;;1.63;1.20;;;17.30;99.90;;;;;;4998260;28;20214;-66
2023/10/17 11:26:25;;;;;;;3.92;1.83;;;17.50;99.90;;;;;;4997894;28;20217;-66
2023/10/17 11:28:51;;;;;;;2.35;1.52;;;17.80;99.90;;;;;;4998195;28;20182;-65
2023/10/17 11:31:24;;;;;;;2.20;1.30;;;18.00;99.90;;;;;;4997873;28;20178;-66
2023/10/17 11:34:12;;;;;;;2.30;1.33;;;18.20;99.90;;;;;;5014211;28;20174;-67
2023/10/17 11:36:47;;;;;;;1.42;1.17;;;18.30;99.90;;;;;;5013970;28;20179;-67
2023/10/17 11:39:16;;;;;;;1.70;1.27;;;18.50;99.90;;;;;;5014359;28;20209;-66
2023/10/17 11:41:55;;;;;;;2.10;1.27;;;18.50;99.90;;;;;;5011072;28;20207;-66
2023/10/17 11:44:25;;;;;;;1.42;1.25;;;18.60;99.90;;;;;;4978649;28;20241;-67
2023/10/17 11:47:06;;;;;;;1.75;1.20;;;18.70;99.90;;;;;;4994617;28;20229;-66
2023/10/17 11:49:43;;;;;;;1.50;1.20;;;18.80;99.90;;;;;;4999627;28;20179;-66
2023/10/17 11:52:10;;;;;;;1.35;0.90;;;18.90;99.90;;;;;;5001579;28;20229;-67
2023/10/17 11:55:05;;;;;;;1.83;1.13;;;18.90;99.90;;;;;;5001796;28;20184;-67
2023/10/17 11:57:33;;;;;;;1.42;1.10;;;19.00;99.90;;;;;;5001744;28;20178;-67
2023/10/17 12:00:19;;;;;;;1.95;1.20;;;19.10;99.90;;;;;;5001001;28;20198;-67
2023/10/17 12:02:48;;;;;;;4.00;1.10;;;19.20;99.90;;;;;;5001236;28;20221;-66
2023/10/17 12:05:27;;;;;;;1.10;1.00;;;19.30;99.90;;;;;;5017404;28;20261;-66
2023/10/17 12:07:53;;;;;;;2.47;1.20;;;19.30;99.90;;;;;;5017806;28;20163;-66
2023/10/17 12:10:20;;;;;;;2.22;1.08;;;19.30;99.90;;;;;;5017454;28;20262;-65
2023/10/17 12:12:47;;;;;;;1.20;0.85;;;19.30;99.90;;;;;;5017449;28;20202;-66
2023/10/17 12:15:13;;;;;;;3.17;1.02;;;19.20;99.90;;;;;;5017576;28;20190;-65
2023/10/17 12:17:40;;;;;;;1.30;0.88;;;19.20;99.90;;;;;;5000921;28;20175;-66
2023/10/17 12:20:11;;;;;;;1.05;0.90;;;19.20;99.90;;;;;;5001114;28;20214;-65
2023/10/17 12:22:40;;;;;;;0.88;0.70;;;19.30;99.90;;;;;;5000723;28;20293;-65
2023/10/17 12:25:09;;;;;;;1.77;0.90;;;19.30;99.90;;;;;;5017427;28;20175;-65
2023/10/17 12:27:35;;;;;;;0.73;0.63;;;19.40;99.90;;;;;;5028010;28;20201;-66
2023/10/17 12:30:01;;;;;;;1.38;0.90;;;19.50;99.90;;;;;;5020735;28;20185;-66
2023/10/17 12:32:27;;;;;;;1.13;0.70;;;19.50;99.90;;;;;;5020363;28;20182;-66
2023/10/17 12:34:58;;;;;;;0.80;0.57;;;19.60;99.90;;;;;;5011354;28;20227;-66
2023/10/17 12:37:23;;;;;;;1.60;0.60;;;19.60;99.90;;;;;;5001013;28;20190;-65
2023/10/17 12:39:49;;;;;;;1.27;0.90;;;19.70;99.90;;;;;;5000618;28;20185;-65
2023/10/17 12:42:17;;;;;;;0.80;0.70;;;19.70;99.90;;;;;;5000650;28;20221;-66
2023/10/17 12:44:43;;;;;;;5.45;0.85;;;19.70;99.90;;;;;;5000789;28;20174;-67
2023/10/17 12:47:08;;;;;;;0.75;0.60;;;19.70;99.90;;;;;;5016691;28;20209;-65
2023/10/17 12:49:34;;;;;;;0.90;0.70;;;19.70;99.90;;;;;;4984473;28;20202;-65
2023/10/17 12:52:00;;;;;;;0.82;0.70;;;19.70;99.90;;;;;;4981120;28;20179;-65
2023/10/17 12:54:26;;;;;;;1.05;0.80;;;19.80;99.90;;;;;;4999658;28;20202;-65
2023/10/17 12:56:53;;;;;;;1.52;0.90;;;19.90;99.90;;;;;;5017769;28;20185;-65
2023/10/17 12:59:19;;;;;;;1.20;0.70;;;19.90;99.90;;;;;;5000565;28;20185;-64
2023/10/17 13:01:45;;;;;;;1.23;0.80;;;19.90;99.90;;;;;;4999512;28;20214;-64
2023/10/17 13:04:11;;;;;;;0.90;0.70;;;20.00;99.90;;;;;;5000354;28;20227;-65
2023/10/17 13:06:42;;;;;;;0.88;0.60;;;20.10;99.90;;;;;;5001840;28;20178;-65
2023/10/17 13:09:07;;;;;;;1.00;0.80;;;20.20;99.90;;;;;;5015945;28;20242;-65
2023/10/17 13:11:33;;;;;;;1.15;0.80;;;20.20;99.90;;;;;;5016711;28;20256;-66
2023/10/17 13:13:59;;;;;;;2.05;0.98;;;20.20;99.90;;;;;;5016256;28;20174;-65
2023/10/17 13:16:26;;;;;;;1.33;0.80;;;20.20;99.90;;;;;;5016174;28;20171;-66
2023/10/17 13:18:56;;;;;;;0.93;0.70;;;20.20;99.90;;;;;;5016065;28;20185;-65
2023/10/17 13:21:23;;;;;;;2.38;0.85;;;20.20;99.90;;;;;;5016245;28;20210;-66
2023/10/17 13:23:48;;;;;;;1.10;0.77;;;20.20;99.90;;;;;;5016295;28;20225;-67
2023/10/17 13:26:19;;;;;;;1.52;0.93;;;20.20;99.90;;;;;;4999718;28;20174;-66
2023/10/17 13:28:44;;;;;;;1.20;0.70;;;20.30;99.90;;;;;;4999662;28;20277;-67
2023/10/17 13:31:15;;;;;;;0.90;0.73;;;20.40;99.90;;;;;;5000011;28;20209;-66
2023/10/17 13:33:49;;;;;;;1.70;0.75;;;20.40;99.90;;;;;;5001809;28;20171;-66
2023/10/17 13:36:17;;;;;;;1.10;0.80;;;20.40;99.90;;;;;;5011832;28;20213;-66
2023/10/17 13:38:45;;;;;;;1.38;0.80;;;20.40;99.90;;;;;;5015829;28;20199;-66
2023/10/17 13:41:17;;;;;;;0.40;0.40;;;20.30;99.90;;;;;;4999566;28;20229;-66
2023/10/17 13:43:47;;;;;;;1.00;0.80;;;20.30;99.90;;;;;;4999676;28;20191;-66
2023/10/17 13:46:17;;;;;;;1.00;0.80;;;20.20;99.90;;;;;;4999447;28;20174;-67
2023/10/17 13:48:49;;;;;;;0.77;0.63;;;20.20;99.90;;;;;;4999370;28;20253;-66
2023/10/17 13:51:16;;;;;;;1.23;0.70;;;20.20;99.90;;;;;;5016775;28;20238;-66
2023/10/17 13:53:46;;;;;;;0.93;0.77;;;20.20;99.90;;;;;;4999193;28;20187;-66
2023/10/17 13:56:18;;;;;;;1.00;0.70;;;20.20;99.90;;;;;;4998898;28;20226;-67
2023/10/17 13:58:49;;;;;;;1.73;0.82;;;20.10;99.90;;;;;;4999436;28;20194;-67
2023/10/17 14:01:27;;;;;;;1.08;0.70;;;20.10;99.90;;;;;;4999469;28;20508;-66
2023/10/17 14:03:56;;;;;;;1.75;0.50;;;20.10;99.90;;;;;;4998983;28;20202;-66
2023/10/17 14:06:22;;;;;;;1.25;0.70;;;20.10;99.90;;;;;;4992561;28;20194;-66
2023/10/17 14:08:51;;;;;;;1.67;0.80;;;20.10;99.90;;;;;;4979473;28;20179;-66
2023/10/17 14:11:19;;;;;;;0.95;0.80;;;20.00;99.90;;;;;;4999392;28;20193;-66
2023/10/17 14:13:46;;;;;;;0.80;0.70;;;19.90;99.90;;;;;;4998713;28;20174;-66
2023/10/17 14:16:14;;;;;;;0.88;0.60;;;19.80;99.90;;;;;;4998633;28;20222;-66
2023/10/17 14:18:42;;;;;;;0.77;0.60;;;19.70;99.90;;;;;;4998843;28;20266;-65
2023/10/17 14:21:23;;;;;;;0.70;0.70;;;19.60;99.90;;;;;;5006272;28;20198;-66
2023/10/17 14:23:59;;;;;;;1.42;0.60;;;19.40;99.90;;;;;;5009952;28;20190;-66
2023/10/17 14:26:28;;;;;;;0.88;0.60;;;19.40;99.90;;;;;;4979316;28;20160;-67
2023/10/17 14:29:00;;;;;;;1.20;0.80;;;19.30;99.90;;;;;;4996616;28;20242;-65
2023/10/17 14:31:26;;;;;;;1.23;0.80;;;19.30;99.90;;;;;;4979118;28;20175;-66
2023/10/17 14:33:52;;;;;;;1.10;0.80;;;19.30;99.90;;;;;;4981240;28;20183;-66
2023/10/17 14:36:18;;;;;;;2.03;0.90;;;19.20;99.90;;;;;;5014698;28;20178;-66
2023/10/17 14:38:46;;;;;;;1.23;0.77;;;19.20;99.90;;;;;;5014986;28;20190;-66
2023/10/17 14:41:18;;;;;;;1.98;1.00;;;19.10;99.90;;;;;;5014785;28;20198;-66
2023/10/17 14:43:47;;;;;;;1.42;0.90;;;19.10;99.90;;;;;;4998724;28;20190;-67
2023/10/17 14:46:16;;;;;;;1.23;0.70;;;19.10;99.90;;;;;;5015045;28;20175;-66
2023/10/17 14:48:42;;;;;;;0.70;0.63;;;19.10;99.90;;;;;;5014636;28;20214;-67
2023/10/17 14:51:12;;;;;;;1.33;0.70;;;19.10;99.90;;;;;;4998463;28;20285;-66
2023/10/17 14:53:42;;;;;;;1.42;0.70;;;19.10;99.90;;;;;;5017559;28;20437;-67
2023/10/17 14:56:13;;;;;;;1.08;0.70;;;19.00;99.90;;;;;;5018406;28;20181;-67
2023/10/17 14:58:49;;;;;;;1.00;0.80;;;18.90;99.90;;;;;;5011612;28;20182;-66
2023/10/17 15:01:16;;;;;;;1.45;1.10;;;18.80;99.90;;;;;;4998260;28;20205;-65
2023/10/17 15:03:45;;;;;;;1.50;0.90;;;18.60;99.90;;;;;;4998207;28;20178;-66
2023/10/17 15:06:11;;;;;;;1.45;0.98;;;18.50;99.90;;;;;;4998377;28;20183;-65
2023/10/17 15:08:37;;;;;;;1.33;0.80;;;18.40;99.90;;;;;;4994713;28;20164;-66
2023/10/17 15:11:06;;;;;;;1.10;0.75;;;18.30;99.90;;;;;;4996544;28;20203;-66
2023/10/17 15:13:34;;;;;;;1.67;0.80;;;18.10;99.90;;;;;;4998148;28;20175;-66
2023/10/17 15:16:12;;;;;;;1.10;0.90;;;18.00;99.90;;;;;;4998272;28;20171;-66
2023/10/17 15:18:40;;;;;;;1.55;1.05;;;17.90;99.90;;;;;;4998147;28;20216;-66
2023/10/17 15:21:11;;;;;;;1.27;1.08;;;17.70;99.90;;;;;;4997750;28;20205;-66
2023/10/17 15:23:40;;;;;;;1.10;1.00;;;17.50;99.90;;;;;;4998464;28;20182;-64
2023/10/17 15:26:06;;;;;;;1.52;0.90;;;17.40;99.90;;;;;;5018440;28;20197;-66
2023/10/17 15:28:34;;;;;;;1.80;1.10;;;17.20;99.90;;;;;;5002178;28;20195;-67
2023/10/17 15:31:07;;;;;;;1.75;1.20;;;17.10;99.90;;;;;;5001736;28;20182;-65
2023/10/17 15:33:39;;;;;;;1.77;1.20;;;17.00;99.90;;;;;;5001920;28;20187;-66
2023/10/17 15:36:07;;;;;;;1.65;1.00;;;16.90;99.90;;;;;;5001367;28;20182;-65
2023/10/17 15:38:32;;;;;;;2.10;1.20;;;16.80;99.90;;;;;;4983789;28;20293;-66
2023/10/17 15:41:00;;;;;;;1.70;1.17;;;16.70;99.90;;;;;;4988661;28;20203;-66
2023/10/17 15:43:26;;;;;;;1.20;0.95;;;16.60;99.90;;;;;;5002038;28;20185;-67